createdAt,value
2023-01-21T00:00:00.172Z,19.20
2023-01-21T00:01:00.167Z,19.70
2023-01-21T00:02:00.252Z,17.80
2023-01-21T00:03:00.164Z,16.40
2023-01-21T00:04:00.162Z,18.20
2023-01-21T00:05:00.135Z,21.70
2023-01-21T00:06:00.179Z,17.80
2023-01-21T00:07:00.113Z,19.80
2023-01-21T00:08:02.575Z,20.40
2023-01-21T00:09:00.092Z,22.90
2023-01-21T00:10:00.109Z,20.70
2023-01-21T00:11:00.055Z,18.50
2023-01-21T00:12:00.045Z,17.60
2023-01-21T00:13:00.028Z,21.30
2023-01-21T00:14:00.018Z,18.10
2023-01-21T00:15:00.006Z,22.40
2023-01-21T00:16:00.127Z,19.90
2023-01-21T00:17:00.004Z,19.40
2023-01-21T00:18:00.007Z,18.90
2023-01-21T00:18:59.964Z,17.80
2023-01-21T00:19:59.957Z,18.80
2023-01-21T00:20:59.962Z,18.70
2023-01-21T00:21:59.965Z,18.40
2023-01-21T00:22:59.922Z,20.30
2023-01-21T00:23:59.916Z,20.80
2023-01-21T00:24:59.925Z,17.70
2023-01-21T00:25:59.895Z,19.80
2023-01-21T00:26:59.899Z,19.00
2023-01-21T00:27:59.865Z,18.90
2023-01-21T00:28:59.875Z,19.20
2023-01-21T00:29:59.855Z,20.20
2023-01-21T00:30:59.947Z,20.50
2023-01-21T00:31:59.854Z,16.80
2023-01-21T00:32:59.820Z,17.40
2023-01-21T00:33:59.843Z,19.70
2023-01-21T00:34:59.795Z,19.90
2023-01-21T00:35:59.779Z,19.30
2023-01-21T00:36:59.777Z,19.10
2023-01-21T00:37:59.786Z,20.70
2023-01-21T00:38:59.765Z,18.30
2023-01-21T00:39:59.748Z,19.40
2023-01-21T00:40:59.737Z,19.60
2023-01-21T00:41:59.806Z,19.20
2023-01-21T00:42:59.729Z,17.30
2023-01-21T00:43:59.720Z,19.30
2023-01-21T00:44:59.685Z,17.50
2023-01-21T00:45:59.755Z,18.60
2023-01-21T00:46:59.661Z,20.40
2023-01-21T00:47:59.680Z,21.20
2023-01-21T00:48:59.651Z,20.20
2023-01-21T00:49:59.646Z,19.00
2023-01-21T00:50:59.679Z,19.30
2023-01-21T00:51:59.616Z,17.20
2023-01-21T00:52:59.615Z,17.70
2023-01-21T00:53:59.591Z,17.20
2023-01-21T00:54:59.588Z,17.20
2023-01-21T00:55:59.609Z,19.00
2023-01-21T00:56:59.579Z,18.80
2023-01-21T00:57:59.548Z,18.30
2023-01-21T00:58:59.549Z,17.10
2023-01-21T00:59:59.533Z,19.00
2023-01-21T01:00:59.531Z,17.70
2023-01-21T01:01:59.509Z,17.90
2023-01-21T01:02:59.638Z,16.50
2023-01-21T01:03:59.503Z,21.40
2023-01-21T01:04:59.501Z,16.80
2023-01-21T01:05:59.512Z,17.30
2023-01-21T01:06:59.463Z,19.10
2023-01-21T01:07:59.445Z,19.30
2023-01-21T01:08:59.450Z,17.10
2023-01-21T01:09:59.427Z,19.50
2023-01-21T01:10:59.442Z,18.30
2023-01-21T01:11:59.426Z,18.50
2023-01-21T01:12:59.396Z,18.60
2023-01-21T01:13:59.388Z,17.80
2023-01-21T01:15:00.966Z,19.00
2023-01-21T01:15:59.479Z,18.10
2023-01-21T01:16:59.344Z,18.50
2023-01-21T01:17:59.335Z,20.70
2023-01-21T01:18:59.340Z,18.20
2023-01-21T01:19:59.318Z,18.10
2023-01-21T01:20:59.304Z,16.90
2023-01-21T01:21:59.333Z,16.30
2023-01-21T01:22:59.281Z,17.60
2023-01-21T01:23:59.274Z,16.80
2023-01-21T01:24:59.257Z,18.20
2023-01-21T01:25:59.246Z,15.70
2023-01-21T01:26:59.270Z,18.20
2023-01-21T01:27:59.255Z,16.10
2023-01-21T01:28:59.215Z,17.00
2023-01-21T01:29:59.227Z,18.70
2023-01-21T01:30:59.341Z,14.80
2023-01-21T01:31:59.201Z,15.70
2023-01-21T01:32:59.192Z,17.10
2023-01-21T01:33:59.178Z,16.00
2023-01-21T01:34:59.158Z,14.80
2023-01-21T01:35:59.163Z,18.40
2023-01-21T01:36:59.145Z,17.40
2023-01-21T01:37:59.132Z,16.30
2023-01-21T01:38:59.139Z,16.40
2023-01-21T01:39:59.115Z,17.80
2023-01-21T01:40:59.088Z,17.00
2023-01-21T01:41:59.103Z,20.60
2023-01-21T01:42:59.106Z,15.70
2023-01-21T01:43:59.092Z,16.30
2023-01-21T01:44:59.049Z,18.20
2023-01-21T01:45:59.029Z,16.00
2023-01-21T01:46:59.025Z,17.60
2023-01-21T01:47:59.030Z,17.10
2023-01-21T01:48:59.026Z,19.60
2023-01-21T01:49:58.995Z,18.10
2023-01-21T01:50:59.044Z,17.40
2023-01-21T01:51:59.066Z,17.60
2023-01-21T01:52:58.979Z,17.50
2023-01-21T01:53:58.955Z,15.50
2023-01-21T01:54:58.927Z,14.90
2023-01-21T01:55:58.931Z,15.90
2023-01-21T01:56:58.933Z,15.90
2023-01-21T01:57:58.911Z,17.90
2023-01-21T01:58:58.906Z,15.80
2023-01-21T01:59:58.882Z,17.50
2023-01-21T02:00:58.867Z,17.70
2023-01-21T02:01:58.946Z,16.40
2023-01-21T02:02:58.861Z,16.80
2023-01-21T02:03:58.850Z,15.70
2023-01-21T02:04:58.827Z,16.30
2023-01-21T02:05:58.840Z,20.00
2023-01-21T02:06:58.817Z,17.20
2023-01-21T02:07:58.797Z,16.60
2023-01-21T02:08:58.788Z,17.90
2023-01-21T02:09:58.782Z,16.00
2023-01-21T02:10:58.831Z,16.30
2023-01-21T02:11:58.745Z,16.90
2023-01-21T02:12:58.732Z,15.80
2023-01-21T02:13:58.724Z,16.00
2023-01-21T02:14:58.743Z,17.90
2023-01-21T02:15:58.753Z,15.30
2023-01-21T02:16:58.688Z,17.80
2023-01-21T02:17:58.677Z,18.20
2023-01-21T02:18:58.691Z,15.90
2023-01-21T02:19:58.682Z,17.10
2023-01-21T02:20:58.652Z,15.70
2023-01-21T02:21:58.669Z,18.00
2023-01-21T02:22:58.650Z,16.70
2023-01-21T02:23:58.618Z,15.70
2023-01-21T02:24:58.642Z,19.60
2023-01-21T02:25:58.630Z,16.40
2023-01-21T02:26:58.609Z,17.30
2023-01-21T02:27:58.604Z,17.30
2023-01-21T02:28:58.563Z,17.30
2023-01-21T02:29:58.623Z,17.60
2023-01-21T02:30:58.619Z,17.70
2023-01-21T02:31:58.546Z,17.80
2023-01-21T02:32:58.532Z,19.10
2023-01-21T02:33:58.532Z,17.30
2023-01-21T02:34:58.522Z,17.80
2023-01-21T02:35:58.536Z,17.50
2023-01-21T02:36:58.505Z,17.20
2023-01-21T02:37:58.465Z,17.70
2023-01-21T02:38:58.471Z,15.50
2023-01-21T02:39:58.481Z,15.70
2023-01-21T02:40:58.440Z,16.80
2023-01-21T02:41:58.444Z,17.20
2023-01-21T02:42:58.433Z,16.60
2023-01-21T02:43:58.410Z,15.60
2023-01-21T02:44:58.427Z,16.10
2023-01-21T02:45:58.380Z,15.70
2023-01-21T02:46:58.385Z,16.30
2023-01-21T02:47:58.387Z,17.60
2023-01-21T02:48:58.359Z,16.40
2023-01-21T02:49:58.338Z,18.20
2023-01-21T02:50:58.372Z,16.50
2023-01-21T02:51:58.310Z,16.90
2023-01-21T02:52:58.301Z,16.50
2023-01-21T02:53:58.287Z,16.10
2023-01-21T02:54:58.291Z,15.90
2023-01-21T02:55:58.301Z,16.50
2023-01-21T02:56:58.272Z,19.50
2023-01-21T02:57:58.265Z,20.70
2023-01-21T02:58:58.252Z,18.10
2023-01-21T02:59:58.258Z,17.80
2023-01-21T03:00:58.295Z,16.60
2023-01-21T03:01:58.279Z,16.10
2023-01-21T03:02:58.193Z,17.60
2023-01-21T03:03:58.185Z,15.10
2023-01-21T03:04:58.172Z,17.70
2023-01-21T03:05:58.165Z,16.40
2023-01-21T03:06:58.175Z,17.80
2023-01-21T03:07:58.148Z,16.80
2023-01-21T03:08:58.129Z,16.90
2023-01-21T03:09:58.118Z,16.50
2023-01-21T03:10:58.129Z,19.20
2023-01-21T03:11:58.120Z,16.90
2023-01-21T03:12:58.104Z,15.80
2023-01-21T03:13:58.107Z,18.50
2023-01-21T03:14:58.064Z,20.20
2023-01-21T03:15:58.074Z,16.40
2023-01-21T03:16:58.042Z,20.80
2023-01-21T03:17:58.050Z,14.80
2023-01-21T03:18:58.056Z,18.10
2023-01-21T03:19:58.023Z,18.30
2023-01-21T03:20:57.999Z,18.10
2023-01-21T03:21:58.006Z,20.00
2023-01-21T03:22:58.019Z,16.30
2023-01-21T03:23:57.974Z,17.90
2023-01-21T03:24:57.981Z,18.40
2023-01-21T03:25:57.956Z,18.50
2023-01-21T03:26:57.941Z,19.30
2023-01-21T03:27:57.962Z,19.40
2023-01-21T03:28:57.941Z,23.40
2023-01-21T03:29:57.928Z,20.50
2023-01-21T03:30:57.943Z,23.20
2023-01-21T03:31:57.888Z,23.70
2023-01-21T03:32:57.912Z,22.20
2023-01-21T03:33:57.961Z,23.60
2023-01-21T03:34:57.849Z,27.50
2023-01-21T03:35:57.847Z,25.90
2023-01-21T03:36:57.839Z,24.30
2023-01-21T03:37:57.848Z,27.30
2023-01-21T03:38:57.823Z,26.00
2023-01-21T03:39:57.826Z,27.20
2023-01-21T03:40:57.789Z,28.40
2023-01-21T03:41:57.771Z,26.40
2023-01-21T03:42:57.774Z,26.50
2023-01-21T03:43:57.784Z,25.50
2023-01-21T03:44:57.784Z,24.70
2023-01-21T03:45:57.806Z,26.70
2023-01-21T03:46:57.730Z,28.70
2023-01-21T03:47:57.722Z,24.70
2023-01-21T03:48:57.729Z,29.80
2023-01-21T03:49:57.689Z,35.30
2023-01-21T03:50:57.712Z,38.40
2023-01-21T03:51:57.670Z,36.20
2023-01-21T03:52:57.673Z,33.70
2023-01-21T03:53:57.687Z,35.20
2023-01-21T03:54:57.642Z,34.30
2023-01-21T03:55:57.630Z,34.50
2023-01-21T03:56:57.628Z,33.40
2023-01-21T03:57:57.599Z,34.50
2023-01-21T03:58:57.611Z,36.60
2023-01-21T03:59:57.583Z,34.40
2023-01-21T04:00:57.657Z,35.50
2023-01-21T04:01:57.644Z,34.30
2023-01-21T04:02:57.553Z,35.90
2023-01-21T04:03:57.588Z,35.50
2023-01-21T04:04:57.530Z,36.80
2023-01-21T04:05:57.521Z,36.40
2023-01-21T04:06:57.559Z,30.60
2023-01-21T04:07:57.506Z,33.60
2023-01-21T04:08:57.483Z,36.00
2023-01-21T04:09:57.495Z,35.10
2023-01-21T04:10:57.497Z,36.20
2023-01-21T04:11:57.488Z,31.80
2023-01-21T04:12:57.481Z,30.30
2023-01-21T04:13:57.486Z,32.40
2023-01-21T04:14:57.469Z,31.40
2023-01-21T04:15:57.423Z,32.90
2023-01-21T04:16:57.399Z,32.10
2023-01-21T04:17:57.423Z,29.80
2023-01-21T04:18:57.407Z,32.70
2023-01-21T04:19:57.383Z,32.20
2023-01-21T04:20:57.365Z,34.70
2023-01-21T04:21:57.355Z,32.30
2023-01-21T04:22:57.335Z,32.30
2023-01-21T04:23:57.340Z,31.50
2023-01-21T04:24:57.312Z,30.10
2023-01-21T04:25:57.301Z,31.70
2023-01-21T04:26:57.290Z,34.20
2023-01-21T04:27:57.296Z,32.40
2023-01-21T04:28:57.296Z,33.50
2023-01-21T04:29:57.269Z,30.20
2023-01-21T04:30:57.289Z,32.50
2023-01-21T04:31:57.296Z,34.30
2023-01-21T04:32:57.232Z,32.10
2023-01-21T04:33:57.240Z,32.90
2023-01-21T04:34:57.237Z,30.00
2023-01-21T04:35:57.222Z,32.40
2023-01-21T04:36:57.184Z,32.30
2023-01-21T04:37:57.184Z,32.20
2023-01-21T04:38:57.158Z,32.50
2023-01-21T04:39:57.177Z,32.80
2023-01-21T04:40:57.157Z,34.30
2023-01-21T04:41:57.140Z,33.80
2023-01-21T04:42:57.130Z,35.20
2023-01-21T04:43:57.121Z,36.40
2023-01-21T04:44:57.130Z,27.10
2023-01-21T04:45:57.168Z,27.30
2023-01-21T04:46:57.077Z,27.40
2023-01-21T04:47:57.093Z,25.30
2023-01-21T04:48:57.059Z,24.00
2023-01-21T04:49:57.112Z,24.60
2023-01-21T04:50:57.088Z,26.90
2023-01-21T04:51:57.036Z,24.30
2023-01-21T04:52:57.020Z,24.20
2023-01-21T04:53:57.024Z,23.30
2023-01-21T04:54:56.996Z,21.80
2023-01-21T04:55:57.022Z,24.10
2023-01-21T04:56:56.977Z,24.70
2023-01-21T04:57:56.973Z,23.30
2023-01-21T04:58:56.959Z,24.30
2023-01-21T04:59:56.937Z,22.00
2023-01-21T05:00:56.963Z,22.00
2023-01-21T05:01:56.992Z,22.60
2023-01-21T05:02:56.922Z,25.10
2023-01-21T05:03:56.895Z,32.60
2023-01-21T05:04:56.889Z,31.80
2023-01-21T05:05:57.016Z,28.80
2023-01-21T05:06:56.862Z,31.70
2023-01-21T05:07:56.864Z,32.30
2023-01-21T05:08:56.876Z,37.20
2023-01-21T05:09:56.868Z,40.60
2023-01-21T05:10:56.843Z,41.10
2023-01-21T05:11:56.840Z,42.00
2023-01-21T05:12:56.804Z,45.30
2023-01-21T05:13:56.823Z,48.10
2023-01-21T05:14:56.786Z,41.80
2023-01-21T05:15:56.946Z,45.80
2023-01-21T05:16:56.797Z,49.70
2023-01-21T05:17:56.780Z,45.10
2023-01-21T05:18:56.757Z,43.80
2023-01-21T05:19:56.736Z,44.70
2023-01-21T05:20:56.710Z,46.60
2023-01-21T05:21:56.740Z,44.20
2023-01-21T05:22:56.714Z,43.00
2023-01-21T05:23:56.686Z,43.90
2023-01-21T05:24:56.670Z,38.20
2023-01-21T05:25:56.662Z,43.50
2023-01-21T05:26:56.667Z,41.40
2023-01-21T05:27:56.642Z,43.20
2023-01-21T05:28:56.626Z,45.20
2023-01-21T05:29:56.636Z,45.00
2023-01-21T05:30:56.721Z,45.80
2023-01-21T05:31:56.642Z,46.80
2023-01-21T05:32:56.580Z,41.00
2023-01-21T05:33:56.574Z,46.20
2023-01-21T05:34:56.586Z,45.60
2023-01-21T05:35:56.571Z,41.90
2023-01-21T05:36:56.562Z,51.20
2023-01-21T05:37:58.851Z,45.80
2023-01-21T05:38:56.517Z,46.00
2023-01-21T05:39:56.515Z,44.90
2023-01-21T05:40:56.499Z,46.50
2023-01-21T05:41:56.508Z,46.90
2023-01-21T05:42:56.511Z,48.80
2023-01-21T05:43:56.462Z,51.90
2023-01-21T05:44:56.458Z,49.30
2023-01-21T05:45:56.499Z,48.60
2023-01-21T05:46:56.435Z,52.10
2023-01-21T05:47:56.441Z,48.40
2023-01-21T05:48:56.415Z,49.90
2023-01-21T05:49:56.395Z,48.20
2023-01-21T05:50:58.287Z,51.70
2023-01-21T05:51:56.407Z,53.70
2023-01-21T05:52:56.400Z,52.20
2023-01-21T05:53:56.379Z,49.30
2023-01-21T05:55:01.772Z,52.30
2023-01-21T05:55:57.343Z,54.40
2023-01-21T05:56:56.329Z,51.10
2023-01-21T05:57:56.335Z,45.30
2023-01-21T05:58:56.311Z,49.10
2023-01-21T05:59:56.316Z,51.80
2023-01-21T06:00:56.288Z,50.40
2023-01-21T06:01:56.300Z,47.40
2023-01-21T06:02:56.260Z,48.70
2023-01-21T06:03:56.316Z,50.70
2023-01-21T06:04:56.265Z,47.90
2023-01-21T06:05:56.224Z,47.90
2023-01-21T06:06:56.210Z,49.90
2023-01-21T06:07:56.207Z,48.40
2023-01-21T06:08:56.222Z,48.10
2023-01-21T06:09:56.220Z,47.20
2023-01-21T06:10:56.200Z,47.70
2023-01-21T06:11:56.204Z,44.80
2023-01-21T06:12:56.152Z,50.40
2023-01-21T06:13:56.144Z,48.80
2023-01-21T06:14:56.149Z,46.20
2023-01-21T06:15:56.220Z,43.00
2023-01-21T06:16:56.120Z,47.20
2023-01-21T06:17:56.100Z,46.20
2023-01-21T06:18:56.085Z,43.00
2023-01-21T06:19:56.070Z,43.30
2023-01-21T06:20:56.061Z,46.20
2023-01-21T06:21:56.063Z,48.50
2023-01-21T06:22:56.039Z,43.30
2023-01-21T06:23:56.043Z,45.50
2023-01-21T06:24:56.026Z,46.30
2023-01-21T06:25:56.028Z,42.10
2023-01-21T06:26:56.039Z,48.90
2023-01-21T06:27:55.987Z,45.90
2023-01-21T06:28:55.989Z,47.30
2023-01-21T06:29:56.921Z,44.10
2023-01-21T06:30:56.041Z,44.30
2023-01-21T06:31:56.080Z,45.20
2023-01-21T06:32:55.933Z,39.70
2023-01-21T06:33:55.938Z,44.00
2023-01-21T06:34:55.915Z,44.10
2023-01-21T06:35:55.935Z,39.30
2023-01-21T06:36:55.904Z,39.20
2023-01-21T06:37:55.894Z,41.50
2023-01-21T06:38:55.864Z,38.50
2023-01-21T06:39:55.891Z,41.60
2023-01-21T06:40:55.921Z,41.80
2023-01-21T06:41:55.872Z,39.10
2023-01-21T06:42:55.844Z,35.20
2023-01-21T06:43:55.808Z,34.70
2023-01-21T06:44:55.802Z,36.20
2023-01-21T06:45:55.825Z,34.30
2023-01-21T06:47:02.378Z,33.60
2023-01-21T06:47:56.809Z,30.60
2023-01-21T06:48:55.765Z,29.10
2023-01-21T06:49:55.747Z,30.70
2023-01-21T06:50:55.786Z,29.00
2023-01-21T06:51:55.731Z,29.60
2023-01-21T06:52:55.718Z,29.20
2023-01-21T06:53:55.741Z,30.50
2023-01-21T06:54:55.721Z,29.10
2023-01-21T06:55:55.788Z,30.40
2023-01-21T06:56:55.716Z,31.30
2023-01-21T06:57:55.749Z,29.80
2023-01-21T06:58:55.656Z,30.60
2023-01-21T06:59:55.642Z,29.50
2023-01-21T07:00:55.657Z,27.70
2023-01-21T07:01:56.498Z,30.10
2023-01-21T07:02:55.635Z,27.90
2023-01-21T07:03:55.648Z,27.00
2023-01-21T07:04:58.093Z,27.90
2023-01-21T07:05:55.581Z,29.40
2023-01-21T07:06:55.598Z,24.70
2023-01-21T07:07:55.557Z,28.60
2023-01-21T07:08:55.559Z,27.20
2023-01-21T07:09:55.570Z,27.30
2023-01-21T07:10:55.526Z,26.70
2023-01-21T07:11:55.626Z,26.30
2023-01-21T07:12:55.496Z,28.00
2023-01-21T07:13:55.508Z,28.60
2023-01-21T07:14:55.500Z,25.10
2023-01-21T07:15:55.512Z,24.80
2023-01-21T07:16:55.466Z,24.90
2023-01-21T07:17:55.458Z,25.30
2023-01-21T07:18:55.467Z,22.70
2023-01-21T07:19:55.436Z,25.80
2023-01-21T07:20:55.410Z,22.80
2023-01-21T07:21:55.411Z,24.10
2023-01-21T07:22:55.422Z,21.90
2023-01-21T07:23:55.382Z,20.50
2023-01-21T07:24:55.367Z,21.60
2023-01-21T07:25:55.370Z,22.70
2023-01-21T07:26:55.359Z,23.30
2023-01-21T07:27:55.337Z,23.80
2023-01-21T07:28:55.350Z,21.70
2023-01-21T07:29:55.447Z,21.10
2023-01-21T07:30:55.377Z,19.60
2023-01-21T07:31:55.397Z,20.30
2023-01-21T07:32:55.279Z,19.40
2023-01-21T07:33:55.265Z,19.50
2023-01-21T07:34:55.282Z,17.80
2023-01-21T07:35:55.276Z,17.40
2023-01-21T07:36:55.241Z,16.50
2023-01-21T07:37:55.404Z,16.80
2023-01-21T07:38:55.230Z,19.00
2023-01-21T07:39:55.215Z,17.30
2023-01-21T07:40:55.254Z,16.80
2023-01-21T07:41:55.198Z,18.80
2023-01-21T07:42:55.178Z,17.70
2023-01-21T07:43:55.163Z,13.60
2023-01-21T07:44:55.192Z,15.40
2023-01-21T07:45:55.153Z,15.10
2023-01-21T07:46:55.145Z,13.60
2023-01-21T07:47:55.144Z,15.30
2023-01-21T07:48:55.111Z,14.80
2023-01-21T07:49:55.090Z,12.60
2023-01-21T07:50:55.136Z,14.50
2023-01-21T07:51:55.081Z,10.90
2023-01-21T07:52:55.083Z,11.40
2023-01-21T07:53:55.065Z,12.10
2023-01-21T07:54:55.048Z,11.40
2023-01-21T07:55:55.040Z,11.90
2023-01-21T07:56:55.061Z,14.10
2023-01-21T07:57:55.002Z,12.20
2023-01-21T07:58:55.012Z,11.70
2023-01-21T07:59:54.993Z,9.90
2023-01-21T08:00:55.158Z,11.40
2023-01-21T08:01:55.102Z,11.90
2023-01-21T08:02:55.062Z,11.20
2023-01-21T08:03:54.987Z,9.20
2023-01-21T08:04:54.947Z,10.10
2023-01-21T08:05:54.919Z,10.90
2023-01-21T08:06:54.908Z,11.10
2023-01-21T08:07:54.917Z,9.00
2023-01-21T08:08:54.899Z,11.20
2023-01-21T08:09:54.898Z,10.40
2023-01-21T08:10:54.869Z,9.90
2023-01-21T08:11:54.858Z,10.30
2023-01-21T08:12:54.868Z,10.30
2023-01-21T08:13:54.835Z,12.30
2023-01-21T08:14:54.827Z,11.80
2023-01-21T08:15:54.883Z,12.00
2023-01-21T08:16:54.803Z,10.70
2023-01-21T08:17:54.819Z,11.80
2023-01-21T08:18:54.788Z,11.50
2023-01-21T08:19:54.764Z,11.90
2023-01-21T08:20:54.759Z,11.90
2023-01-21T08:21:54.770Z,11.80
2023-01-21T08:22:54.749Z,11.90
2023-01-21T08:23:54.726Z,11.70
2023-01-21T08:24:54.730Z,11.40
2023-01-21T08:25:54.722Z,13.60
2023-01-21T08:26:54.711Z,11.00
2023-01-21T08:27:54.689Z,11.30
2023-01-21T08:28:54.686Z,11.90
2023-01-21T08:29:54.692Z,14.00
2023-01-21T08:30:54.708Z,13.30
2023-01-21T08:31:54.831Z,12.90
2023-01-21T08:32:54.656Z,12.10
2023-01-21T08:33:54.674Z,11.50
2023-01-21T08:34:54.615Z,11.60
2023-01-21T08:35:54.595Z,12.80
2023-01-21T08:36:54.588Z,12.40
2023-01-21T08:37:54.607Z,11.10
2023-01-21T08:38:54.583Z,11.60
2023-01-21T08:39:54.574Z,12.60
2023-01-21T08:40:54.559Z,11.30
2023-01-21T08:41:54.528Z,12.30
2023-01-21T08:42:54.537Z,10.90
2023-01-21T08:43:54.551Z,11.80
2023-01-21T08:44:54.525Z,10.90
2023-01-21T08:45:54.502Z,15.30
2023-01-21T08:46:54.590Z,12.20
2023-01-21T08:47:54.600Z,13.90
2023-01-21T08:48:54.454Z,12.90
2023-01-21T08:49:54.477Z,12.70
2023-01-21T08:50:54.521Z,14.10
2023-01-21T08:51:54.418Z,12.20
2023-01-21T08:52:54.453Z,11.80
2023-01-21T08:53:54.412Z,14.60
2023-01-21T08:54:54.393Z,13.90
2023-01-21T08:55:54.380Z,12.50
2023-01-21T08:56:54.408Z,12.50
2023-01-21T08:57:54.379Z,14.60
2023-01-21T08:58:54.349Z,13.30
2023-01-21T08:59:54.343Z,15.00
2023-01-21T09:00:54.349Z,12.10
2023-01-21T09:01:54.341Z,13.10
2023-01-21T09:02:54.325Z,12.50
2023-01-21T09:03:54.296Z,12.30
2023-01-21T09:04:54.301Z,10.10
2023-01-21T09:05:54.329Z,10.70
2023-01-21T09:06:54.292Z,10.90
2023-01-21T09:07:54.570Z,13.00
2023-01-21T09:08:54.233Z,11.90
2023-01-21T09:09:54.269Z,11.40
2023-01-21T09:10:54.256Z,10.50
2023-01-21T09:11:54.201Z,10.80
2023-01-21T09:12:54.214Z,10.60
2023-01-21T09:13:54.203Z,10.40
2023-01-21T09:14:54.198Z,9.60
2023-01-21T09:15:54.166Z,10.80
2023-01-21T09:16:54.154Z,9.70
2023-01-21T09:17:54.150Z,12.70
2023-01-21T09:18:54.141Z,10.60
2023-01-21T09:19:55.548Z,11.90
2023-01-21T09:20:54.107Z,10.50
2023-01-21T09:21:54.122Z,12.10
2023-01-21T09:22:54.098Z,10.90
2023-01-21T09:23:54.079Z,10.40
2023-01-21T09:24:54.072Z,9.90
2023-01-21T09:25:54.080Z,10.00
2023-01-21T09:26:54.051Z,9.10
2023-01-21T09:27:54.040Z,9.00
2023-01-21T09:28:54.035Z,9.50
2023-01-21T09:29:54.007Z,9.30
2023-01-21T09:30:54.044Z,10.10
2023-01-21T09:31:54.026Z,9.90
2023-01-21T09:32:53.989Z,9.00
2023-01-21T09:33:53.962Z,9.80
2023-01-21T09:34:53.951Z,9.40
2023-01-21T09:35:53.946Z,10.00
2023-01-21T09:36:53.941Z,8.90
2023-01-21T09:37:53.971Z,9.00
2023-01-21T09:38:53.911Z,10.00
2023-01-21T09:39:53.918Z,9.30
2023-01-21T09:40:53.929Z,9.90
2023-01-21T09:41:53.908Z,9.60
2023-01-21T09:42:53.899Z,10.10
2023-01-21T09:43:53.857Z,9.60
2023-01-21T09:44:53.902Z,9.80
2023-01-21T09:45:53.956Z,9.40
2023-01-21T09:46:53.879Z,9.20
2023-01-21T09:47:53.831Z,10.10
2023-01-21T09:48:53.847Z,10.70
2023-01-21T09:49:53.792Z,10.40
2023-01-21T09:50:53.911Z,11.30
2023-01-21T09:51:53.800Z,11.10
2023-01-21T09:52:53.771Z,12.20
2023-01-21T09:53:53.775Z,11.40
2023-01-21T09:54:53.820Z,11.80
2023-01-21T09:55:53.719Z,14.50
2023-01-21T09:56:53.735Z,14.70
2023-01-21T09:57:53.704Z,13.40
2023-01-21T09:58:53.740Z,12.90
2023-01-21T09:59:53.706Z,15.00
2023-01-21T10:00:53.740Z,13.00
2023-01-21T10:01:53.657Z,12.70
2023-01-21T10:02:53.657Z,14.80
2023-01-21T10:03:53.635Z,13.20
2023-01-21T10:04:53.667Z,13.90
2023-01-21T10:05:53.631Z,15.20
2023-01-21T10:06:53.611Z,15.40
2023-01-21T10:07:53.589Z,15.30
2023-01-21T10:08:53.591Z,14.10
2023-01-21T10:09:53.616Z,15.30
2023-01-21T10:10:53.573Z,15.30
2023-01-21T10:11:53.573Z,15.40
2023-01-21T10:12:53.531Z,14.40
2023-01-21T10:13:53.520Z,14.50
2023-01-21T10:14:53.520Z,15.20
2023-01-21T10:15:53.499Z,13.50
2023-01-21T10:16:53.548Z,13.80
2023-01-21T10:17:53.545Z,16.20
2023-01-21T10:18:53.546Z,15.60
2023-01-21T10:19:53.462Z,14.30
2023-01-21T10:20:53.483Z,15.10
2023-01-21T10:21:53.455Z,15.80
2023-01-21T10:22:53.444Z,15.60
2023-01-21T10:23:53.444Z,13.50
2023-01-21T10:24:53.472Z,14.80
2023-01-21T10:25:53.414Z,15.30
2023-01-21T10:26:53.378Z,14.90
2023-01-21T10:27:53.406Z,15.90
2023-01-21T10:28:53.360Z,14.20
2023-01-21T10:29:53.357Z,16.20
2023-01-21T10:30:53.566Z,14.30
2023-01-21T10:31:53.510Z,14.80
2023-01-21T10:32:53.315Z,15.30
2023-01-21T10:33:53.323Z,15.50
2023-01-21T10:34:53.321Z,16.20
2023-01-21T10:35:53.302Z,15.30
2023-01-21T10:36:53.279Z,15.00
2023-01-21T10:37:53.283Z,14.30
2023-01-21T10:38:53.246Z,15.10
2023-01-21T10:39:53.250Z,17.40
2023-01-21T10:40:53.252Z,16.30
2023-01-21T10:41:53.235Z,16.40
2023-01-21T10:42:53.204Z,15.10
2023-01-21T10:43:53.190Z,15.70
2023-01-21T10:44:53.196Z,14.70
2023-01-21T10:45:53.220Z,13.90
2023-01-21T10:46:53.157Z,15.70
2023-01-21T10:47:53.158Z,13.40
2023-01-21T10:48:53.164Z,14.80
2023-01-21T10:49:53.126Z,15.50
2023-01-21T10:50:53.133Z,15.20
2023-01-21T10:51:53.119Z,14.50
2023-01-21T10:52:53.108Z,14.90
2023-01-21T10:53:53.083Z,13.20
2023-01-21T10:54:53.098Z,13.80
2023-01-21T10:55:53.084Z,12.40
2023-01-21T10:56:53.070Z,14.20
2023-01-21T10:57:53.065Z,13.70
2023-01-21T10:58:53.070Z,12.80
2023-01-21T10:59:53.042Z,12.90
2023-01-21T11:00:53.000Z,13.40
2023-01-21T11:01:53.007Z,13.70
2023-01-21T11:02:53.011Z,12.70
2023-01-21T11:03:52.998Z,13.60
2023-01-21T11:04:52.977Z,14.20
2023-01-21T11:05:52.960Z,13.50
2023-01-21T11:06:52.940Z,13.00
2023-01-21T11:07:52.980Z,12.80
2023-01-21T11:08:52.985Z,13.80
2023-01-21T11:09:52.906Z,13.70
2023-01-21T11:10:52.899Z,13.70
2023-01-21T11:11:52.887Z,15.40
2023-01-21T11:12:52.902Z,16.30
2023-01-21T11:13:52.904Z,13.30
2023-01-21T11:14:52.855Z,16.20
2023-01-21T11:15:52.889Z,14.30
2023-01-21T11:16:52.857Z,15.40
2023-01-21T11:17:52.841Z,14.10
2023-01-21T11:18:52.826Z,14.10
2023-01-21T11:19:52.823Z,12.40
2023-01-21T11:20:52.790Z,14.30
2023-01-21T11:21:52.799Z,14.60
2023-01-21T11:22:52.773Z,14.50
2023-01-21T11:23:52.755Z,14.00
2023-01-21T11:24:52.763Z,12.40
2023-01-21T11:25:52.754Z,13.30
2023-01-21T11:26:52.726Z,13.30
2023-01-21T11:27:52.715Z,14.90
2023-01-21T11:28:52.695Z,13.00
2023-01-21T11:29:52.737Z,13.20
2023-01-21T11:30:53.343Z,13.90
2023-01-21T11:31:52.856Z,14.20
2023-01-21T11:32:52.656Z,13.60
2023-01-21T11:33:52.657Z,14.70
2023-01-21T11:34:52.655Z,16.90
2023-01-21T11:35:52.636Z,14.00
2023-01-21T11:36:52.614Z,12.70
2023-01-21T11:37:52.660Z,10.30
2023-01-21T11:38:52.594Z,11.10
2023-01-21T11:39:52.657Z,15.80
2023-01-21T11:40:52.612Z,14.50
2023-01-21T11:41:52.632Z,14.70
2023-01-21T11:42:52.574Z,11.00
2023-01-21T11:43:52.588Z,11.60
2023-01-21T11:44:52.576Z,11.60
2023-01-21T11:45:52.585Z,10.90
2023-01-21T11:46:52.552Z,11.40
2023-01-21T11:47:52.532Z,10.30
2023-01-21T11:48:52.499Z,10.10
2023-01-21T11:49:52.492Z,10.30
2023-01-21T11:50:52.484Z,10.30
2023-01-21T11:51:52.456Z,11.70
2023-01-21T11:52:52.451Z,11.00
2023-01-21T11:53:52.425Z,11.80
2023-01-21T11:54:52.498Z,9.90
2023-01-21T11:55:52.414Z,9.20
2023-01-21T11:56:52.389Z,9.90
2023-01-21T11:57:52.397Z,9.00
2023-01-21T11:58:52.373Z,9.70
2023-01-21T11:59:52.393Z,9.80
2023-01-21T12:00:52.347Z,9.40
2023-01-21T12:01:52.356Z,10.20
2023-01-21T12:02:52.427Z,10.40
2023-01-21T12:03:52.409Z,10.10
2023-01-21T12:04:52.350Z,12.30
2023-01-21T12:05:52.330Z,9.40
2023-01-21T12:06:52.329Z,10.40
2023-01-21T12:07:52.280Z,9.50
2023-01-21T12:08:52.305Z,9.70
2023-01-21T12:09:52.251Z,10.10
2023-01-21T12:10:52.245Z,8.60
2023-01-21T12:11:52.252Z,9.90
2023-01-21T12:12:52.240Z,10.40
2023-01-21T12:13:52.235Z,9.40
2023-01-21T12:14:52.203Z,10.10
2023-01-21T12:15:52.272Z,9.00
2023-01-21T12:16:52.448Z,10.30
2023-01-21T12:17:52.239Z,8.50
2023-01-21T12:18:52.148Z,9.30
2023-01-21T12:19:52.141Z,7.20
2023-01-21T12:20:52.212Z,8.30
2023-01-21T12:21:52.179Z,9.30
2023-01-21T12:22:52.146Z,8.80
2023-01-21T12:23:52.098Z,10.10
2023-01-21T12:24:52.140Z,9.20
2023-01-21T12:25:52.078Z,10.90
2023-01-21T12:26:52.110Z,9.80
2023-01-21T12:27:52.066Z,10.70
2023-01-21T12:28:52.066Z,9.60
2023-01-21T12:29:52.080Z,9.20
2023-01-21T12:30:52.123Z,9.20
2023-01-21T12:31:52.033Z,9.00
2023-01-21T12:32:52.004Z,11.80
2023-01-21T12:33:52.038Z,9.70
2023-01-21T12:34:52.001Z,10.30
2023-01-21T12:35:51.987Z,10.30
2023-01-21T12:36:51.946Z,12.00
2023-01-21T12:37:51.954Z,11.50
2023-01-21T12:38:51.923Z,11.20
2023-01-21T12:39:51.940Z,10.10
2023-01-21T12:40:51.937Z,9.80
2023-01-21T12:41:51.935Z,10.30
2023-01-21T12:42:52.414Z,10.60
2023-01-21T12:43:51.883Z,9.90
2023-01-21T12:44:51.860Z,10.70
2023-01-21T12:45:51.877Z,12.80
2023-01-21T12:46:51.874Z,11.90
2023-01-21T12:47:51.838Z,10.70
2023-01-21T12:48:51.843Z,11.70
2023-01-21T12:49:51.824Z,11.30
2023-01-21T12:50:51.854Z,11.70
2023-01-21T12:51:51.789Z,11.30
2023-01-21T12:52:51.801Z,12.80
2023-01-21T12:53:51.760Z,12.00